Time;durP1;ratioP1;P1;durP2;ratioP2;P2;SDS_P1;SDS_P2;PMS_P1;PMS_P2;Temp;Humidity;BMP_temperature;BMP_pressure;BME280_temperature;BME280_humidity;BME280_pressure;Samples;Min_cycle;Max_cycle;Signal;HPM_P1;HPM_P2
2021/05/24 00:01:17;;;;;;;;;;;20.70;51.80;;;;;;5036600;28;19929;-69
2021/05/24 00:03:43;;;;;;;;;;;20.70;51.90;;;;;;5047835;28;19928;-69
2021/05/24 00:06:09;;;;;;;;;;;20.70;51.80;;;;;;5042259;28;19935;-69
2021/05/24 00:08:35;;;;;;;;;;;20.70;51.90;;;;;;5037586;28;19929;-69
2021/05/24 00:11:02;;;;;;;;;;;20.70;51.90;;;;;;5047300;28;19933;-69
2021/05/24 00:13:28;;;;;;;;;;;20.70;51.90;;;;;;5045379;28;19928;-69
2021/05/24 00:15:54;;;;;;;;;;;20.70;51.90;;;;;;5042659;28;19928;-69
2021/05/24 00:18:20;;;;;;;;;;;20.70;51.90;;;;;;5047945;28;19989;-70
2021/05/24 00:20:47;;;;;;;;;;;20.70;51.90;;;;;;5042484;28;19940;-69
2021/05/24 00:23:13;;;;;;;;;;;20.70;51.90;;;;;;5018709;28;19936;-69
2021/05/24 00:25:39;;;;;;;;;;;20.70;51.80;;;;;;5037443;28;19951;-70
2021/05/24 00:28:11;;;;;;;;;;;20.70;51.80;;;;;;5048636;28;19928;-71
2021/05/24 00:30:38;;;;;;;;;;;20.70;51.70;;;;;;5046795;28;19968;-69
2021/05/24 00:33:04;;;;;;;;;;;20.70;51.80;;;;;;5051102;28;20424;-69
2021/05/24 00:35:31;;;;;;;;;;;20.70;51.90;;;;;;5051384;28;19936;-69
2021/05/24 00:37:57;;;;;;;;;;;20.70;51.70;;;;;;5052036;28;19929;-69
2021/05/24 00:40:23;;;;;;;;;;;20.70;51.70;;;;;;5047573;28;19929;-68
2021/05/24 00:42:49;;;;;;;;;;;20.70;51.70;;;;;;5031407;28;20415;-68
2021/05/24 00:45:16;;;;;;;;;;;20.70;51.80;;;;;;5040875;28;19929;-70
2021/05/24 00:47:42;;;;;;;;;;;20.70;51.70;;;;;;5041312;28;19929;-69
2021/05/24 00:50:10;;;;;;;;;;;20.70;51.70;;;;;;5049311;28;19933;-70
2021/05/24 00:52:36;;;;;;;;;;;20.70;51.60;;;;;;5050558;28;20005;-70
2021/05/24 00:55:02;;;;;;;;;;;20.70;51.80;;;;;;5039446;28;19932;-70
2021/05/24 00:57:28;;;;;;;;;;;20.70;51.80;;;;;;5026070;28;19928;-69
2021/05/24 00:59:54;;;;;;;;;;;20.70;51.60;;;;;;5049006;28;19928;-70
2021/05/24 01:02:21;;;;;;;;;;;20.70;51.60;;;;;;5049633;28;19928;-68
2021/05/24 01:04:47;;;;;;;;;;;20.70;51.70;;;;;;5051043;28;19929;-70
2021/05/24 01:07:13;;;;;;;;;;;20.70;51.80;;;;;;5045998;28;19925;-71
2021/05/24 01:09:39;;;;;;;;;;;20.70;51.90;;;;;;5046982;28;19931;-70
2021/05/24 01:12:05;;;;;;;;;;;20.70;51.90;;;;;;5051469;28;19928;-70
2021/05/24 01:14:31;;;;;;;;;;;20.70;51.90;;;;;;5048308;28;19929;-69
2021/05/24 01:16:57;;;;;;;;;;;20.70;51.80;;;;;;5041459;28;19928;-70
2021/05/24 01:19:24;;;;;;;;;;;20.80;51.90;;;;;;5047688;28;19925;-71
2021/05/24 01:21:52;;;;;;;;;;;20.80;51.90;;;;;;5049669;28;19928;-70
2021/05/24 01:24:18;;;;;;;;;;;20.80;51.70;;;;;;5047284;28;19948;-69
2021/05/24 01:26:44;;;;;;;;;;;20.80;51.60;;;;;;5049769;28;20393;-69
2021/05/24 01:29:10;;;;;;;;;;;20.80;51.60;;;;;;5047008;28;19929;-69
2021/05/24 01:31:36;;;;;;;;;;;20.80;51.60;;;;;;5046259;28;19935;-69
2021/05/24 01:34:02;;;;;;;;;;;20.80;51.50;;;;;;5050164;28;19933;-69
2021/05/24 01:36:28;;;;;;;;;;;20.80;51.40;;;;;;5050550;28;19934;-69
2021/05/24 01:38:55;;;;;;;;;;;20.90;51.50;;;;;;5039535;28;19937;-69
2021/05/24 01:41:21;;;;;;;;;;;20.80;51.40;;;;;;5048783;28;19928;-68
2021/05/24 01:43:47;;;;;;;;;;;20.80;51.50;;;;;;5049504;28;19948;-68
2021/05/24 01:46:13;;;;;;;;;;;20.80;51.20;;;;;;5050649;28;19936;-69
2021/05/24 01:48:40;;;;;;;;;;;20.80;51.30;;;;;;5046880;28;19935;-70
2021/05/24 01:51:06;;;;;;;;;;;20.80;51.30;;;;;;5039652;28;20628;-68
2021/05/24 01:53:32;;;;;;;;;;;20.80;51.40;;;;;;5044323;28;19962;-69
2021/05/24 01:55:59;;;;;;;;;;;20.70;51.50;;;;;;5049547;28;19928;-69
2021/05/24 01:58:26;;;;;;;;;;;20.70;51.50;;;;;;5050031;28;19932;-68
2021/05/24 02:00:53;;;;;;;;;;;20.70;51.50;;;;;;5047603;28;19929;-69
2021/05/24 02:03:19;;;;;;;;;;;20.70;51.50;;;;;;5041638;28;19929;-69
2021/05/24 02:05:45;;;;;;;;;;;20.70;51.50;;;;;;5048953;28;19995;-68
2021/05/24 02:08:11;;;;;;;;;;;20.70;51.50;;;;;;5037904;28;20618;-69
2021/05/24 02:10:37;;;;;;;;;;;20.70;51.50;;;;;;5037477;28;19929;-70
2021/05/24 02:13:04;;;;;;;;;;;20.70;51.50;;;;;;5045998;28;19935;-69
2021/05/24 02:15:31;;;;;;;;;;;20.70;51.60;;;;;;5046415;28;20284;-69
2021/05/24 02:17:57;;;;;;;;;;;20.70;51.60;;;;;;5048696;28;19936;-69
2021/05/24 02:20:24;;;;;;;;;;;20.70;51.60;;;;;;5049630;28;19936;-70
2021/05/24 02:22:50;;;;;;;;;;;20.70;51.50;;;;;;5048883;28;20020;-70
2021/05/24 02:25:16;;;;;;;;;;;20.70;51.50;;;;;;5049580;28;19929;-69
2021/05/24 02:27:42;;;;;;;;;;;20.70;51.30;;;;;;5049142;28;19933;-68
2021/05/24 02:30:10;;;;;;;;;;;20.70;51.20;;;;;;5046225;28;19932;-69
2021/05/24 02:32:36;;;;;;;;;;;20.70;51.40;;;;;;5045640;28;20184;-68
2021/05/24 02:35:02;;;;;;;;;;;20.70;51.50;;;;;;5050468;28;19928;-70
2021/05/24 02:37:28;;;;;;;;;;;20.70;51.40;;;;;;5039142;28;19928;-69
2021/05/24 02:39:54;;;;;;;;;;;20.60;51.40;;;;;;5048121;28;19936;-68
2021/05/24 02:42:20;;;;;;;;;;;20.70;51.40;;;;;;5049086;28;19929;-68
2021/05/24 02:44:46;;;;;;;;;;;20.60;51.40;;;;;;5046318;28;19929;-69
2021/05/24 02:47:13;;;;;;;;;;;20.60;51.40;;;;;;5040970;28;19935;-68
2021/05/24 02:49:39;;;;;;;;;;;20.60;51.50;;;;;;5045924;28;19933;-69
2021/05/24 02:52:05;;;;;;;;;;;20.60;51.50;;;;;;5047990;28;19935;-69
2021/05/24 02:54:31;;;;;;;;;;;20.60;51.40;;;;;;5038999;28;19929;-68
2021/05/24 02:56:57;;;;;;;;;;;20.60;51.50;;;;;;5044384;28;19928;-70
2021/05/24 02:59:23;;;;;;;;;;;20.60;51.40;;;;;;5048708;28;19937;-69
2021/05/24 03:01:49;;;;;;;;;;;20.60;51.30;;;;;;5047604;28;20470;-69
2021/05/24 03:04:18;;;;;;;;;;;20.60;51.30;;;;;;5049514;28;20023;-69
2021/05/24 03:06:44;;;;;;;;;;;20.60;51.20;;;;;;5048997;28;19929;-70
2021/05/24 03:09:10;;;;;;;;;;;20.60;51.20;;;;;;5046513;28;19963;-70
2021/05/24 03:11:36;;;;;;;;;;;20.70;51.00;;;;;;5048090;28;20317;-72
2021/05/24 03:14:02;;;;;;;;;;;20.70;50.90;;;;;;5047850;28;19929;-69
2021/05/24 03:16:28;;;;;;;;;;;20.70;50.70;;;;;;5035849;28;19928;-70
2021/05/24 03:18:54;;;;;;;;;;;20.80;50.70;;;;;;5048646;28;19925;-68
2021/05/24 03:21:21;;;;;;;;;;;20.80;50.50;;;;;;5045319;28;19929;-69
2021/05/24 03:23:47;;;;;;;;;;;20.80;50.40;;;;;;5037696;28;19936;-70
2021/05/24 03:26:13;;;;;;;;;;;20.90;50.30;;;;;;5043786;28;19928;-69
2021/05/24 03:28:42;;;;;;;;;;;20.90;50.20;;;;;;5048754;28;19928;-70
2021/05/24 03:31:08;;;;;;;;;;;21.00;50.10;;;;;;5046721;28;19963;-69
2021/05/24 03:33:34;;;;;;;;;;;21.00;50.00;;;;;;5046665;28;19954;-70
2021/05/24 03:36:00;;;;;;;;;;;21.10;49.80;;;;;;5047176;28;19929;-70
2021/05/24 03:38:27;;;;;;;;;;;21.10;49.80;;;;;;5038622;28;19928;-69
2021/05/24 03:40:53;;;;;;;;;;;21.10;49.70;;;;;;5044799;28;19936;-69
2021/05/24 03:43:21;;;;;;;;;;;21.10;49.70;;;;;;5036440;28;19987;-70
2021/05/24 03:45:47;;;;;;;;;;;21.20;49.70;;;;;;5047653;28;19929;-69
2021/05/24 03:48:13;;;;;;;;;;;21.20;49.60;;;;;;5046081;28;19999;-69
2021/05/24 03:50:39;;;;;;;;;;;21.10;49.40;;;;;;5036520;28;20398;-69
2021/05/24 03:53:05;;;;;;;;;;;21.10;49.50;;;;;;5045540;28;19931;-69
2021/05/24 03:55:32;;;;;;;;;;;21.10;49.50;;;;;;5046412;28;19932;-69
2021/05/24 03:57:58;;;;;;;;;;;21.10;49.50;;;;;;5046311;28;19944;-70
2021/05/24 04:00:24;;;;;;;;;;;21.00;49.50;;;;;;5044492;28;19932;-69
2021/05/24 04:02:50;;;;;;;;;;;21.00;49.60;;;;;;5045304;28;19936;-70
2021/05/24 04:05:21;;;;;;;;;;;21.00;49.60;;;;;;5046301;28;19936;-69
2021/05/24 04:07:49;;;;;;;;;;;21.00;49.60;;;;;;5044145;28;20062;-70
2021/05/24 04:10:16;;;;;;;;;;;21.00;49.70;;;;;;5008265;28;20403;-67
2021/05/24 04:12:43;;;;;;;;;;;21.00;49.70;;;;;;5044486;28;19932;-67
2021/05/24 04:15:10;;;;;;;;;;;21.00;49.70;;;;;;5046741;28;19936;-68
2021/05/24 04:17:38;;;;;;;;;;;21.00;49.70;;;;;;5046263;28;19928;-69
2021/05/24 04:20:05;;;;;;;;;;;21.00;49.60;;;;;;5048402;28;20342;-69
2021/05/24 04:22:31;;;;;;;;;;;21.00;49.60;;;;;;5045600;28;19932;-70
2021/05/24 04:24:57;;;;;;;;;;;21.00;49.60;;;;;;5045137;28;20013;-69
2021/05/24 04:27:23;;;;;;;;;;;21.00;49.60;;;;;;5047937;28;19943;-69
2021/05/24 04:29:50;;;;;;;;;;;21.10;49.60;;;;;;5044468;28;19951;-69
2021/05/24 04:32:16;;;;;;;;;;;21.10;49.60;;;;;;5047894;28;19929;-74
2021/05/24 04:34:42;;;;;;;;;;;21.10;49.60;;;;;;5043806;28;20540;-69
2021/05/24 04:37:08;;;;;;;;;;;21.10;49.30;;;;;;5048673;28;19929;-70
2021/05/24 04:39:34;;;;;;;;;;;21.10;49.40;;;;;;5045361;28;20432;-70
2021/05/24 04:42:00;;;;;;;;;;;21.10;49.50;;;;;;5046730;28;19928;-69
2021/05/24 04:44:26;;;;;;;;;;;21.00;49.40;;;;;;5044769;28;20323;-70
2021/05/24 04:46:53;;;;;;;;;;;21.00;49.50;;;;;;5037390;28;19928;-70
2021/05/24 04:49:19;;;;;;;;;;;21.00;49.50;;;;;;5041020;28;19936;-71
2021/05/24 04:51:45;;;;;;;;;;;21.00;49.60;;;;;;5047681;28;19941;-69
2021/05/24 04:54:11;;;;;;;;;;;21.00;49.60;;;;;;5042401;28;19931;-69
2021/05/24 04:56:37;;;;;;;;;;;21.00;49.50;;;;;;5044462;28;19925;-69
2021/05/24 04:59:03;;;;;;;;;;;21.00;49.60;;;;;;5046515;28;20304;-70
2021/05/24 05:01:29;;;;;;;;;;;20.90;49.50;;;;;;5047241;28;19931;-69
2021/05/24 05:03:56;;;;;;;;;;;21.00;50.30;;;;;;5044601;28;19974;-70
2021/05/24 05:06:22;;;;;;;;;;;21.00;49.60;;;;;;5047223;28;19939;-70
2021/05/24 05:08:48;;;;;;;;;;;21.00;49.60;;;;;;5049367;28;20375;-70
2021/05/24 05:11:14;;;;;;;;;;;21.00;49.50;;;;;;5044254;28;20343;-70
2021/05/24 05:13:40;;;;;;;;;;;21.00;49.60;;;;;;5050424;28;20331;-70
2021/05/24 05:16:06;;;;;;;;;;;20.90;49.60;;;;;;5050536;28;20335;-68
2021/05/24 05:18:33;;;;;;;;;;;21.00;49.80;;;;;;5048393;28;19932;-70
2021/05/24 05:20:59;;;;;;;;;;;21.00;49.70;;;;;;5045386;28;19977;-69
2021/05/24 05:23:25;;;;;;;;;;;21.00;49.60;;;;;;5049604;28;20049;-70
2021/05/24 05:25:51;;;;;;;;;;;21.00;49.60;;;;;;5047576;28;19928;-68
2021/05/24 05:28:20;;;;;;;;;;;21.00;49.50;;;;;;5051428;28;20320;-69
2021/05/24 05:30:46;;;;;;;;;;;21.00;49.50;;;;;;5021517;28;19979;-69
2021/05/24 05:33:12;;;;;;;;;;;21.00;50.30;;;;;;5045012;28;19932;-69
2021/05/24 05:35:38;;;;;;;;;;;21.00;49.60;;;;;;5050240;28;19929;-70
2021/05/24 05:38:05;;;;;;;;;;;20.90;49.60;;;;;;5048373;28;19928;-69
2021/05/24 05:40:32;;;;;;;;;;;20.90;49.70;;;;;;5048582;28;20013;-70
2021/05/24 05:42:58;;;;;;;;;;;20.90;49.70;;;;;;5046054;28;19928;-69
2021/05/24 05:45:24;;;;;;;;;;;20.90;49.70;;;;;;5050291;28;20303;-68
2021/05/24 05:47:50;;;;;;;;;;;20.90;49.80;;;;;;5043612;28;19929;-69
2021/05/24 05:50:16;;;;;;;;;;;21.00;49.80;;;;;;5046534;28;19972;-71
2021/05/24 05:52:42;;;;;;;;;;;21.00;49.90;;;;;;5049651;28;19932;-68
2021/05/24 05:55:09;;;;;;;;;;;21.00;49.80;;;;;;5048663;28;19982;-69
2021/05/24 05:57:35;;;;;;;;;;;20.90;49.70;;;;;;5047611;28;19928;-69
2021/05/24 06:00:01;;;;;;;;;;;20.90;49.80;;;;;;5046696;28;20439;-70
2021/05/24 06:02:27;;;;;;;;;;;20.90;49.80;;;;;;5049457;28;20392;-68
2021/05/24 06:04:53;;;;;;;;;;;20.90;49.90;;;;;;5049777;28;19935;-69
2021/05/24 06:07:19;;;;;;;;;;;20.90;49.90;;;;;;5044398;28;19932;-68
2021/05/24 06:09:45;;;;;;;;;;;20.90;49.90;;;;;;5047362;28;19929;-68
2021/05/24 06:12:12;;;;;;;;;;;21.00;49.80;;;;;;5045228;28;19979;-69
2021/05/24 06:14:38;;;;;;;;;;;21.00;49.80;;;;;;5050518;28;19928;-68
2021/05/24 06:17:04;;;;;;;;;;;21.00;49.80;;;;;;5047927;28;19929;-68
2021/05/24 06:19:30;;;;;;;;;;;21.00;49.90;;;;;;5046421;28;19935;-67
2021/05/24 06:21:56;;;;;;;;;;;21.00;50.00;;;;;;5045097;28;19951;-68
2021/05/24 06:24:23;;;;;;;;;;;20.90;50.00;;;;;;5041213;28;20400;-69
2021/05/24 06:26:49;;;;;;;;;;;20.90;50.00;;;;;;5044209;28;20273;-68
2021/05/24 06:29:21;;;;;;;;;;;20.90;50.00;;;;;;5050788;28;19994;-70
2021/05/24 06:31:47;;;;;;;;;;;20.90;50.10;;;;;;5019594;28;19959;-70
2021/05/24 06:34:13;;;;;;;;;;;20.90;50.20;;;;;;5039233;28;19928;-70
2021/05/24 06:36:39;;;;;;;;;;;20.80;50.10;;;;;;5042316;28;19940;-70
2021/05/24 06:39:06;;;;;;;;;;;20.80;50.50;;;;;;5046105;28;20377;-69
2021/05/24 06:41:32;;;;;;;;;;;20.80;50.50;;;;;;5046119;28;19935;-70
2021/05/24 06:43:59;;;;;;;;;;;20.80;50.40;;;;;;5046084;28;19929;-71
2021/05/24 06:46:25;;;;;;;;;;;20.80;50.50;;;;;;5042821;28;20059;-70
2021/05/24 06:48:51;;;;;;;;;;;20.80;50.40;;;;;;5034585;28;19936;-71
2021/05/24 06:51:17;;;;;;;;;;;20.80;50.40;;;;;;5043326;28;19958;-74
2021/05/24 06:53:44;;;;;;;;;;;20.80;50.40;;;;;;5040365;28;20387;-70
2021/05/24 06:56:10;;;;;;;;;;;20.80;50.40;;;;;;5044995;28;19955;-71
2021/05/24 06:58:36;;;;;;;;;;;20.80;50.40;;;;;;5037267;28;20802;-70
2021/05/24 07:01:02;;;;;;;;;;;20.80;50.40;;;;;;5037474;28;19932;-70
2021/05/24 07:03:29;;;;;;;;;;;20.80;50.50;;;;;;5043642;28;19983;-68
2021/05/24 07:05:56;;;;;;;;;;;20.80;50.50;;;;;;5042621;28;19937;-69
2021/05/24 07:08:22;;;;;;;;;;;20.80;50.50;;;;;;5040692;28;20606;-68
2021/05/24 07:10:48;;;;;;;;;;;20.80;50.40;;;;;;5044264;28;20332;-71
2021/05/24 07:13:14;;;;;;;;;;;20.80;50.50;;;;;;5020923;28;19929;-69
2021/05/24 07:15:40;;;;;;;;;;;20.80;50.50;;;;;;5043119;28;19933;-68
2021/05/24 07:18:06;;;;;;;;;;;20.80;50.50;;;;;;5038425;28;19935;-69
2021/05/24 07:20:33;;;;;;;;;;;20.80;50.50;;;;;;5033208;28;19935;-73
2021/05/24 07:22:59;;;;;;;;;;;20.80;50.60;;;;;;5002583;28;20393;-70
2021/05/24 07:25:25;;;;;;;;;;;20.80;50.70;;;;;;5036915;28;19963;-68
2021/05/24 07:27:51;;;;;;;;;;;20.80;50.60;;;;;;5040878;28;20530;-69
2021/05/24 07:30:17;;;;;;;;;;;20.70;50.60;;;;;;5040798;28;20840;-69
2021/05/24 07:32:44;;;;;;;;;;;20.70;50.70;;;;;;5045993;28;19929;-71
2021/05/24 07:35:10;;;;;;;;;;;20.70;50.80;;;;;;5045203;28;19939;-69
2021/05/24 07:37:37;;;;;;;;;;;20.70;50.90;;;;;;5038783;28;19963;-69
2021/05/24 07:40:04;;;;;;;;;;;20.70;50.90;;;;;;5046408;28;19928;-69
2021/05/24 07:42:30;;;;;;;;;;;20.80;51.10;;;;;;5045993;28;19931;-69
2021/05/24 07:44:56;;;;;;;;;;;20.80;51.00;;;;;;5044382;28;19925;-69
2021/05/24 07:47:22;;;;;;;;;;;20.80;51.30;;;;;;5031822;28;19932;-69
2021/05/24 07:49:48;;;;;;;;;;;20.80;51.20;;;;;;5035753;28;19925;-70
2021/05/24 07:52:14;;;;;;;;;;;20.80;51.10;;;;;;5041298;28;19943;-71
2021/05/24 07:54:41;;;;;;;;;;;20.80;51.20;;;;;;5044804;28;19981;-71
2021/05/24 07:57:07;;;;;;;;;;;20.80;51.10;;;;;;5044850;28;19933;-69
2021/05/24 07:59:33;;;;;;;;;;;20.80;51.00;;;;;;5037636;28;19951;-70
2021/05/24 08:02:00;;;;;;;;;;;20.80;51.60;;;;;;5043308;28;20646;-71
2021/05/24 08:04:26;;;;;;;;;;;20.80;52.60;;;;;;5046340;28;20443;-70
2021/05/24 08:06:52;;;;;;;;;;;20.90;51.80;;;;;;5041664;28;19929;-70
2021/05/24 08:09:18;;;;;;;;;;;20.80;51.20;;;;;;5044072;28;19933;-70
2021/05/24 08:11:45;;;;;;;;;;;20.80;51.20;;;;;;5044541;28;19928;-71
2021/05/24 08:14:14;;;;;;;;;;;20.80;51.00;;;;;;5043641;28;19933;-70
2021/05/24 08:16:40;;;;;;;;;;;20.80;51.00;;;;;;5044179;28;19972;-70
2021/05/24 08:19:06;;;;;;;;;;;20.70;51.00;;;;;;5047004;28;21104;-68
2021/05/24 08:21:33;;;;;;;;;;;20.80;51.10;;;;;;5047532;28;20396;-70
2021/05/24 08:23:59;;;;;;;;;;;20.70;50.80;;;;;;5045139;28;19998;-69
2021/05/24 08:26:25;;;;;;;;;;;20.70;50.90;;;;;;5046807;28;19925;-69
2021/05/24 08:28:51;;;;;;;;;;;20.70;51.10;;;;;;5045124;28;20702;-69
2021/05/24 08:31:17;;;;;;;;;;;20.70;51.10;;;;;;5042841;28;21079;-69
2021/05/24 08:33:43;;;;;;;;;;;20.70;51.30;;;;;;5045778;28;20015;-69
2021/05/24 08:36:10;;;;;;;;;;;20.70;51.20;;;;;;5040422;28;19940;-69
2021/05/24 08:38:36;;;;;;;;;;;20.70;51.20;;;;;;5046256;28;20606;-69
2021/05/24 08:41:07;;;;;;;;;;;20.70;51.20;;;;;;5040907;28;19995;-68
2021/05/24 08:43:33;;;;;;;;;;;20.70;51.20;;;;;;5044213;28;19998;-71
2021/05/24 08:46:00;;;;;;;;;;;20.70;51.10;;;;;;5042608;28;19951;-70
2021/05/24 08:48:26;;;;;;;;;;;20.70;51.00;;;;;;5049343;28;19928;-69
2021/05/24 08:50:52;;;;;;;;;;;20.70;51.00;;;;;;5052020;28;20427;-70
2021/05/24 08:53:18;;;;;;;;;;;20.70;51.10;;;;;;5048078;28;20470;-70
2021/05/24 08:55:45;;;;;;;;;;;20.70;51.10;;;;;;5048311;28;19929;-70
2021/05/24 08:58:11;;;;;;;;;;;20.70;51.00;;;;;;5037224;28;19933;-70
2021/05/24 09:00:37;;;;;;;;;;;20.70;51.10;;;;;;5048843;28;20015;-69
2021/05/24 09:03:04;;;;;;;;;;;20.70;51.10;;;;;;5048196;28;21177;-70
2021/05/24 09:05:30;;;;;;;;;;;20.60;51.00;;;;;;5048010;28;19928;-69
2021/05/24 09:07:57;;;;;;;;;;;20.60;51.10;;;;;;5045260;28;19971;-69
2021/05/24 09:10:23;;;;;;;;;;;20.60;51.10;;;;;;5037243;28;19929;-70
2021/05/24 09:12:49;;;;;;;;;;;20.60;51.10;;;;;;5052662;28;19933;-70
2021/05/24 09:15:15;;;;;;;;;;;20.60;51.00;;;;;;5050706;28;19935;-70
2021/05/24 09:17:45;;;;;;;;;;;20.60;51.20;;;;;;5049459;28;19932;-70
2021/05/24 09:20:29;;;;;;;;;;;20.60;51.10;;;;;;5048474;28;19935;-69
2021/05/24 09:23:10;;;;;;;;;;;20.60;51.20;;;;;;5037125;28;19963;-69
2021/05/24 09:25:45;;;;;;;;;;;20.60;51.30;;;;;;5046856;28;19972;-69
2021/05/24 09:28:23;;;;;;;;;;;20.60;51.20;;;;;;5051766;28;19937;-69
2021/05/24 09:30:52;;;;;;;;;;;20.70;51.30;;;;;;5022556;28;19929;-70
2021/05/24 09:33:18;;;;;;;;;;;20.70;51.30;;;;;;5044029;28;19928;-70
2021/05/24 09:35:46;;;;;;;;;;;20.70;51.10;;;;;;5048456;28;19986;-69
2021/05/24 09:38:13;;;;;;;;;;;20.70;51.10;;;;;;5050173;28;19933;-69
2021/05/24 09:40:39;;;;;;;;;;;20.70;50.80;;;;;;5046374;28;19937;-70
2021/05/24 09:43:06;;;;;;;;;;;20.70;51.10;;;;;;5049936;28;19978;-71
2021/05/24 09:45:32;;;;;;;;;;;20.70;51.20;;;;;;5049820;28;19925;-70
2021/05/24 09:47:59;;;;;;;;;;;20.70;51.20;;;;;;5047300;28;20286;-71
2021/05/24 09:50:25;;;;;;;;;;;20.70;51.20;;;;;;5043738;28;19932;-69
2021/05/24 09:52:51;;;;;;;;;;;20.70;51.20;;;;;;5048763;28;19982;-69
2021/05/24 09:55:19;;;;;;;;;;;20.70;51.10;;;;;;5032908;28;19946;-68
2021/05/24 09:57:51;;;;;;;;;;;20.80;51.10;;;;;;5041811;28;20408;-70
2021/05/24 10:00:21;;;;;;;;;;;20.70;51.00;;;;;;5024917;28;19928;-69
2021/05/24 10:02:47;;;;;;;;;;;20.70;50.80;;;;;;5046316;28;19928;-70
2021/05/24 10:05:13;;;;;;;;;;;20.70;50.80;;;;;;5045785;28;19981;-71
2021/05/24 10:07:39;;;;;;;;;;;20.70;51.50;;;;;;5048772;28;20543;-69
2021/05/24 10:10:06;;;;;;;;;;;20.70;50.70;;;;;;5046516;28;19936;-70
2021/05/24 10:12:33;;;;;;;;;;;20.70;50.80;;;;;;5046599;28;19928;-70
2021/05/24 10:14:59;;;;;;;;;;;20.60;50.80;;;;;;5046946;28;19933;-71
2021/05/24 10:17:25;;;;;;;;;;;20.60;50.80;;;;;;5051091;28;20484;-70
2021/05/24 10:19:51;;;;;;;;;;;20.60;50.90;;;;;;5046208;28;19954;-69
2021/05/24 10:22:18;;;;;;;;;;;20.60;51.00;;;;;;5042146;28;19979;-71
2021/05/24 10:24:44;;;;;;;;;;;20.60;51.00;;;;;;5035804;28;20332;-72
2021/05/24 10:27:10;;;;;;;;;;;20.60;51.00;;;;;;5039568;28;19935;-72
2021/05/24 10:29:37;;;;;;;;;;;20.60;50.80;;;;;;5033461;28;20535;-69
2021/05/24 10:32:03;;;;;;;;;;;20.60;50.80;;;;;;5048869;28;19936;-72
2021/05/24 10:34:36;;;;;;;;;;;20.70;51.10;;;;;;5048075;28;19954;-69
2021/05/24 10:37:05;;;;;;;;;;;20.70;51.20;;;;;;5046865;28;20354;-70
2021/05/24 10:39:40;;;;;;;;;;;20.70;51.30;;;;;;5043264;28;19929;-69
2021/05/24 10:42:09;;;;;;;;;;;20.70;50.90;;;;;;5045396;28;19929;-69
2021/05/24 10:44:40;;;;;;;;;;;20.70;51.00;;;;;;5042067;28;19928;-70
2021/05/24 10:47:19;;;;;;;;;;;20.70;50.70;;;;;;5046726;28;19962;-70
2021/05/24 10:50:00;;;;;;;;;;;20.70;50.80;;;;;;5046499;28;19928;-68
2021/05/24 10:52:27;;;;;;;;;;;20.70;50.90;;;;;;5049734;28;19929;-69
2021/05/24 10:54:53;;;;;;;;;;;20.70;50.80;;;;;;5047876;28;19937;-70
2021/05/24 10:57:19;;;;;;;;;;;20.70;50.60;;;;;;5043983;28;20019;-70
2021/05/24 10:59:47;;;;;;;;;;;20.60;50.60;;;;;;5045046;28;19955;-69
2021/05/24 11:02:13;;;;;;;;;;;20.60;50.60;;;;;;5049073;28;19933;-70
2021/05/24 11:04:44;;;;;;;;;;;20.60;50.60;;;;;;5047143;28;19998;-71
2021/05/24 11:07:23;;;;;;;;;;;20.60;50.40;;;;;;5049733;28;19929;-70
2021/05/24 11:09:49;;;;;;;;;;;20.70;50.60;;;;;;5037708;28;19972;-70
2021/05/24 11:12:16;;;;;;;;;;;20.70;50.50;;;;;;5034275;28;19933;-75
2021/05/24 11:14:56;;;;;;;;;;;20.70;50.90;;;;;;5045765;28;19933;-70
2021/05/24 11:17:23;;;;;;;;;;;20.70;49.90;;;;;;5019974;28;19928;-70
2021/05/24 11:19:49;;;;;;;;;;;20.70;48.20;;;;;;5045697;28;19975;-69
2021/05/24 11:22:32;;;;;;;;;;;20.60;48.30;;;;;;5040035;28;19955;-69
2021/05/24 11:25:49;;;;;;;;;;;20.60;48.60;;;;;;5047450;28;20008;-67
2021/05/24 11:28:11;;;;;;;;;;;20.60;46.90;;;;;;5037101;28;19928;-70
2021/05/24 11:30:37;;;;;;;;;;;20.70;47.10;;;;;;5046948;28;19928;-69
2021/05/24 11:33:04;;;;;;;;;;;20.70;47.20;;;;;;5044767;28;19928;-72
2021/05/24 11:35:30;;;;;;;;;;;20.60;47.20;;;;;;5047388;28;19929;-70
2021/05/24 11:37:56;;;;;;;;;;;20.70;47.60;;;;;;5047533;28;19933;-69
2021/05/24 11:40:23;;;;;;;;;;;20.70;47.50;;;;;;5049047;28;19933;-68
2021/05/24 11:42:50;;;;;;;;;;;20.70;47.00;;;;;;5034385;28;19929;-70
2021/05/24 11:45:16;;;;;;;;;;;20.70;48.70;;;;;;5047291;28;20017;-70
2021/05/24 11:47:42;;;;;;;;;;;20.70;46.70;;;;;;5045575;28;20294;-70
2021/05/24 11:50:10;;;;;;;;;;;20.60;46.20;;;;;;5043028;28;19933;-69
2021/05/24 11:52:37;;;;;;;;;;;20.50;45.60;;;;;;5034002;28;19933;-69
2021/05/24 11:55:04;;;;;;;;;;;20.50;46.20;;;;;;5044615;28;19928;-69
2021/05/24 11:57:31;;;;;;;;;;;20.60;47.10;;;;;;5044634;28;19943;-68
2021/05/24 11:59:57;;;;;;;;;;;20.50;46.10;;;;;;5039089;28;19936;-68
2021/05/24 12:02:23;;;;;;;;;;;20.50;47.70;;;;;;5029906;28;19929;-69
2021/05/24 12:04:50;;;;;;;;;;;20.60;47.70;;;;;;5046293;28;21294;-69
2021/05/24 12:07:17;;;;;;;;;;;20.60;47.80;;;;;;5048263;28;19929;-70
2021/05/24 12:09:43;;;;;;;;;;;20.70;46.00;;;;;;5034643;28;20598;-69
2021/05/24 12:12:10;;;;;;;;;;;20.70;46.70;;;;;;5041130;28;19935;-70
2021/05/24 12:14:36;;;;;;;;;;;20.70;45.00;;;;;;5045506;28;19933;-68
2021/05/24 12:17:06;;;;;;;;;;;20.70;46.30;;;;;;5034759;28;19937;-70
2021/05/24 12:19:32;;;;;;;;;;;20.80;45.70;;;;;;5034352;28;19928;-71
2021/05/24 12:22:02;;;;;;;;;;;20.80;45.30;;;;;;5046707;28;20042;-69
2021/05/24 12:24:29;;;;;;;;;;;20.80;45.30;;;;;;5048305;28;19929;-70
2021/05/24 12:26:55;;;;;;;;;;;20.80;45.80;;;;;;5047653;28;19933;-69
2021/05/24 12:29:22;;;;;;;;;;;20.80;45.30;;;;;;5045919;28;19936;-69
2021/05/24 12:31:48;;;;;;;;;;;20.80;44.80;;;;;;5047010;28;19978;-70
2021/05/24 12:34:14;;;;;;;;;;;20.90;44.60;;;;;;5043961;28;19928;-69
2021/05/24 12:36:44;;;;;;;;;;;20.90;43.70;;;;;;5048000;28;19933;-69
2021/05/24 12:39:10;;;;;;;;;;;20.90;48.80;;;;;;5049604;28;20355;-68
2021/05/24 12:41:38;;;;;;;;;;;20.70;49.60;;;;;;5040198;28;19978;-69
2021/05/24 12:44:05;;;;;;;;;;;20.70;50.20;;;;;;5041556;28;20007;-71
2021/05/24 12:46:32;;;;;;;;;;;20.60;50.00;;;;;;5049151;28;20380;-68
2021/05/24 12:48:58;;;;;;;;;;;20.50;50.70;;;;;;5048589;28;19935;-71
2021/05/24 12:51:25;;;;;;;;;;;20.50;50.10;;;;;;5035539;28;21485;-71
2021/05/24 12:53:51;;;;;;;;;;;20.50;51.00;;;;;;5046218;28;19928;-69
2021/05/24 12:56:17;;;;;;;;;;;20.40;51.20;;;;;;5048070;28;19930;-70
2021/05/24 12:58:44;;;;;;;;;;;20.40;51.10;;;;;;5050878;28;19929;-70
2021/05/24 13:01:11;;;;;;;;;;;20.40;51.20;;;;;;5049316;28;20547;-70
2021/05/24 13:03:40;;;;;;;;;;;20.50;49.30;;;;;;5046980;28;19994;-71
2021/05/24 13:06:07;;;;;;;;;;;20.60;50.80;;;;;;5048238;28;19935;-69
2021/05/24 13:08:33;;;;;;;;;;;20.70;50.60;;;;;;5049719;28;19928;-69
2021/05/24 13:10:59;;;;;;;;;;;20.70;50.40;;;;;;5046898;28;19947;-70
2021/05/24 13:13:25;;;;;;;;;;;20.80;50.60;;;;;;5050807;28;19935;-69
2021/05/24 13:15:56;;;;;;;;;;;20.80;50.00;;;;;;5048116;28;19929;-69
2021/05/24 13:18:33;;;;;;;;;;;20.70;50.30;;;;;;5030857;28;19994;-70
2021/05/24 13:21:12;;;;;;;;;;;20.70;49.30;;;;;;5046645;28;19934;-68
2021/05/24 13:26:50;;;;;;;;;;;20.70;49.50;;;;;;5048591;28;20501;-69
2021/05/24 13:29:25;;;;;;;;;;;20.80;45.70;;;;;;5051432;28;19997;-67
2021/05/24 13:31:52;;;;;;;;;;;20.70;48.60;;;;;;5045924;28;19921;-71
2021/05/24 13:34:18;;;;;;;;;;;20.80;48.60;;;;;;5047974;28;19928;-72
2021/05/24 13:36:45;;;;;;;;;;;20.80;55.90;;;;;;5047649;28;20346;-68
2021/05/24 13:39:14;;;;;;;;;;;20.80;51.60;;;;;;5050489;28;20305;-70
2021/05/24 13:41:40;;;;;;;;;;;20.80;52.00;;;;;;5048999;28;19935;-70
2021/05/24 13:44:08;;;;;;;;;;;20.80;51.10;;;;;;5045100;28;19925;-70
2021/05/24 13:46:34;;;;;;;;;;;20.80;51.10;;;;;;5046469;28;19931;-70
2021/05/24 13:49:01;;;;;;;;;;;20.90;51.10;;;;;;5047947;28;19925;-69
2021/05/24 13:51:27;;;;;;;;;;;20.90;51.00;;;;;;5050535;28;20330;-70
2021/05/24 13:53:53;;;;;;;;;;;20.90;51.10;;;;;;5045769;28;19940;-69
2021/05/24 13:56:19;;;;;;;;;;;20.80;51.30;;;;;;5050295;28;20019;-70
2021/05/24 13:58:45;;;;;;;;;;;20.80;51.50;;;;;;5048493;28;19925;-70
2021/05/24 14:01:12;;;;;;;;;;;20.80;51.50;;;;;;5031893;28;20412;-69
2021/05/24 14:03:38;;;;;;;;;;;20.80;51.40;;;;;;5046737;28;20419;-69
2021/05/24 14:06:05;;;;;;;;;;;20.80;51.50;;;;;;5048414;28;19954;-68
2021/05/24 14:08:31;;;;;;;;;;;20.90;51.40;;;;;;5048459;28;19931;-69
2021/05/24 14:10:57;;;;;;;;;;;20.90;51.20;;;;;;5050423;28;19933;-68
2021/05/24 14:13:23;;;;;;;;;;;20.90;51.20;;;;;;5049077;28;19925;-68
2021/05/24 14:15:49;;;;;;;;;;;20.90;51.10;;;;;;5046792;28;19925;-68
2021/05/24 14:18:15;;;;;;;;;;;20.90;51.10;;;;;;5048289;28;19931;-69